Time;durP1;ratioP1;P1;durP2;ratioP2;P2;SDS_P1;SDS_P2;PMS_P1;PMS_P2;Temp;Humidity;BMP_temperature;BMP_pressure;BME280_temperature;BME280_humidity;BME280_pressure;Samples;Min_cycle;Max_cycle;Signal;HPM_P1;HPM_P2
2021/09/27 00:00:09;;;;;;;93.95;31.30;;;;;;;14.91;100.00;96416.69;1032293;28;20058;-51
2021/09/27 00:00:43;;;;;;;85.53;29.23;;;;;;;14.89;100.00;96415.16;1028791;28;20101;-52
2021/09/27 00:01:14;;;;;;;85.57;29.80;;;;;;;14.89;100.00;96410.72;1032507;28;20018;-51
2021/09/27 00:01:44;;;;;;;65.22;27.15;;;;;;;14.90;100.00;96409.75;1032488;28;20425;-52
2021/09/27 00:02:15;;;;;;;73.65;27.52;;;;;;;14.90;100.00;96409.75;1028406;28;20007;-52
2021/09/27 00:02:45;;;;;;;66.35;27.08;;;;;;;14.88;100.00;96409.00;1024482;29;20053;-51
2021/09/27 00:03:17;;;;;;;58.33;26.40;;;;;;;14.89;100.00;96410.72;1024995;28;20007;-51
2021/09/27 00:03:47;;;;;;;61.58;26.50;;;;;;;14.89;100.00;96408.06;1024758;28;20593;-51
2021/09/27 00:04:18;;;;;;;52.55;25.30;;;;;;;14.89;100.00;96410.72;1028570;28;20021;-51
2021/09/27 00:04:49;;;;;;;63.08;27.85;;;;;;;14.88;100.00;96414.28;1024690;29;20023;-51
2021/09/27 00:05:20;;;;;;;66.82;28.58;;;;;;;14.86;100.00;96416.22;1024518;29;20050;-51
2021/09/27 00:05:51;;;;;;;66.40;28.30;;;;;;;14.85;100.00;96414.56;1024875;28;20082;-53
2021/09/27 00:06:22;;;;;;;44.42;24.50;;;;;;;14.83;100.00;96411.22;1028459;28;20018;-52
2021/09/27 00:06:52;;;;;;;55.55;25.20;;;;;;;14.84;100.00;96412.88;1028874;28;20011;-52
2021/09/27 00:07:23;;;;;;;52.03;25.25;;;;;;;14.85;100.00;96411.09;1028654;28;20011;-49
2021/09/27 00:07:54;;;;;;;53.65;25.83;;;;;;;14.86;100.00;96408.31;1024610;29;20043;-51
2021/09/27 00:08:24;;;;;;;48.08;25.27;;;;;;;14.83;100.00;96411.22;1024640;29;20007;-51
2021/09/27 00:08:55;;;;;;;56.92;25.70;;;;;;;14.86;100.00;96407.47;1024490;29;20073;-51
2021/09/27 00:09:32;;;;;;;51.47;25.17;;;;;;;14.88;100.00;96411.66;1020577;29;20039;-52
2021/09/27 00:10:04;;;;;;;44.28;24.88;;;;;;;14.87;100.00;96409.16;1020726;29;20020;-52
2021/09/27 00:10:42;;;;;;;46.65;25.15;;;;;;;14.82;100.00;96406.06;1020378;29;20418;-51
2021/09/27 00:11:17;;;;;;;48.85;25.40;;;;;;;14.81;100.00;96405.22;1028428;28;20019;-52
2021/09/27 00:11:48;;;;;;;47.88;24.33;;;;;;;14.83;100.00;96408.56;1031567;28;20105;-51
2021/09/27 00:12:18;;;;;;;46.58;24.92;;;;;;;14.84;100.00;96412.03;1026311;28;20533;-50
2021/09/27 00:12:49;;;;;;;47.28;25.20;;;;;;;14.81;100.00;96404.34;1025171;28;20023;-51
2021/09/27 00:13:20;;;;;;;43.50;23.75;;;;;;;14.80;100.00;96411.44;1028930;28;20023;-51
2021/09/27 00:13:53;;;;;;;42.35;23.83;;;;;;;14.81;100.00;96407.84;1028590;28;20023;-51
2021/09/27 00:14:24;;;;;;;46.13;24.80;;;;;;;14.80;100.00;96406.16;1025272;28;20390;-51
2021/09/27 00:14:55;;;;;;;42.40;23.65;;;;;;;14.81;100.00;96401.72;1021096;29;20019;-51
2021/09/27 00:15:29;;;;;;;47.63;24.65;;;;;;;14.82;100.00;96408.69;1025231;28;20823;-51
2021/09/27 00:16:00;;;;;;;47.95;24.95;;;;;;;14.81;100.00;96407.84;1025235;28;20015;-50
2021/09/27 00:16:31;;;;;;;52.13;25.08;;;;;;;14.82;100.00;96404.25;1025403;28;20433;-51
2021/09/27 00:17:03;;;;;;;37.97;22.88;;;;;;;14.82;100.00;96406.06;1028251;28;20018;-51
2021/09/27 00:17:33;;;;;;;39.42;23.70;;;;;;;14.81;100.00;96405.22;1028488;28;20067;-51
2021/09/27 00:18:05;;;;;;;53.15;26.08;;;;;;;14.80;100.00;96407.97;1028676;28;20007;-52
2021/09/27 00:18:36;;;;;;;53.58;25.05;;;;;;;14.81;100.00;96405.22;1021129;29;20087;-52
2021/09/27 00:19:08;;;;;;;47.65;24.45;;;;;;;14.84;100.00;96401.50;1024543;28;20023;-50
2021/09/27 00:19:38;;;;;;;48.03;24.00;;;;;;;14.85;100.00;96411.09;1020900;29;20031;-51
2021/09/27 00:20:09;;;;;;;47.15;23.15;;;;;;;14.84;100.00;96406.75;1024902;28;20011;-50
2021/09/27 00:20:43;;;;;;;51.55;24.08;;;;;;;14.85;100.00;96409.28;1028641;28;20083;-51
2021/09/27 00:21:22;;;;;;;46.22;24.38;;;;;;;14.84;100.00;96407.59;1025124;28;20532;-50
2021/09/27 00:21:54;;;;;;;45.22;23.27;;;;;;;14.83;100.00;96398.03;1024408;29;20074;-52
2021/09/27 00:22:25;;;;;;;56.72;25.92;;;;;;;14.83;100.00;96398.03;1022438;29;20022;-51
2021/09/27 00:22:55;;;;;;;44.47;24.15;;;;;;;14.83;100.00;96402.44;1024128;28;20050;-51
2021/09/27 00:23:27;;;;;;;43.30;23.20;;;;;;;14.82;100.00;96400.78;1020469;29;20019;-52
2021/09/27 00:23:58;;;;;;;50.28;26.33;;;;;;;14.82;100.00;96406.06;1020494;29;20031;-51
2021/09/27 00:24:29;;;;;;;48.70;25.10;;;;;;;14.81;100.00;96407.84;1024252;29;20122;-52
2021/09/27 00:25:00;;;;;;;57.33;27.60;;;;;;;14.81;100.00;96405.22;1028163;28;20030;-50
2021/09/27 00:25:31;;;;;;;62.35;27.38;;;;;;;14.80;100.00;96407.97;1028043;28;20047;-52
2021/09/27 00:26:02;;;;;;;51.03;24.95;;;;;;;14.79;100.00;96407.16;1028086;28;20026;-50
2021/09/27 00:26:33;;;;;;;46.13;24.70;;;;;;;14.81;100.00;96399.94;1028145;28;20388;-51
2021/09/27 00:27:04;;;;;;;52.95;25.17;;;;;;;14.77;100.00;96399.34;1024311;28;20026;-51
2021/09/27 00:27:35;;;;;;;63.17;26.90;;;;;;;14.82;100.00;96403.41;1024042;28;20026;-50
2021/09/27 00:28:05;;;;;;;69.47;27.63;;;;;;;14.78;100.00;96398.38;1027922;28;20110;-50
2021/09/27 00:28:36;;;;;;;54.53;24.77;;;;;;;14.78;100.00;96394.91;1027918;28;20031;-50
2021/09/27 00:29:07;;;;;;;74.10;28.08;;;;;;;14.78;100.00;96398.38;1028049;28;20119;-51
2021/09/27 00:29:38;;;;;;;68.20;27.95;;;;;;;14.78;100.00;96395.72;1027853;28;20019;-50
2021/09/27 00:30:10;;;;;;;55.80;26.50;;;;;;;14.75;100.00;96400.41;1032045;28;20077;-51
2021/09/27 00:30:40;;;;;;;82.50;30.30;;;;;;;14.74;100.00;96401.38;1027824;28;20130;-52
2021/09/27 00:31:12;;;;;;;71.63;27.63;;;;;;;14.74;100.00;96404.84;1032068;28;20022;-51
2021/09/27 00:31:42;;;;;;;101.50;32.15;;;;;;;14.77;100.00;96396.72;1027904;28;20019;-50
2021/09/27 00:32:13;;;;;;;74.30;30.00;;;;;;;14.80;100.00;96392.97;1031991;28;20034;-51
2021/09/27 00:32:44;;;;;;;57.20;25.92;;;;;;;14.82;100.00;96396.31;1027901;28;20456;-51
2021/09/27 00:33:16;;;;;;;49.78;25.38;;;;;;;14.78;100.00;96403.66;1031949;28;20065;-50
2021/09/27 00:33:47;;;;;;;44.92;24.73;;;;;;;14.77;100.00;96395.84;1031930;28;20484;-50
2021/09/27 00:34:18;;;;;;;60.17;27.27;;;;;;;14.76;100.00;96397.66;1036029;28;20101;-51
2021/09/27 00:34:48;;;;;;;45.53;24.20;;;;;;;14.79;100.00;96399.22;1032435;28;20022;-51
2021/09/27 00:35:22;;;;;;;44.72;24.13;;;;;;;14.80;100.00;96400.06;1036034;28;20018;-51
2021/09/27 00:35:53;;;;;;;52.45;25.52;;;;;;;14.85;100.00;96403.19;1027847;28;20070;-52
2021/09/27 00:36:24;;;;;;;53.35;25.30;;;;;;;14.84;100.00;96396.22;1028046;28;20030;-50
2021/09/27 00:36:54;;;;;;;53.55;26.20;;;;;;;14.80;100.00;96395.63;1024026;29;20103;-51
2021/09/27 00:37:25;;;;;;;54.45;27.38;;;;;;;14.86;100.00;96399.56;1024382;28;20042;-52
2021/09/27 00:37:56;;;;;;;47.92;25.58;;;;;;;14.87;100.00;96404.72;1027946;28;20030;-50
2021/09/27 00:38:28;;;;;;;50.92;25.17;;;;;;;14.84;100.00;96402.31;1028229;28;20022;-50
2021/09/27 00:38:59;;;;;;;59.67;26.80;;;;;;;14.83;100.00;96395.38;1027989;28;20021;-52
2021/09/27 00:39:29;;;;;;;51.88;26.83;;;;;;;14.81;100.00;96396.44;1024351;28;20389;-51
2021/09/27 00:40:00;;;;;;;59.38;27.15;;;;;;;14.78;100.00;96401.00;1027975;28;20033;-49
2021/09/27 00:40:33;;;;;;;63.38;27.75;;;;;;;14.76;100.00;96397.66;1024487;28;20121;-51
2021/09/27 00:41:06;;;;;;;50.60;25.00;;;;;;;14.79;100.00;96399.22;1028482;28;20050;-51
2021/09/27 00:41:37;;;;;;;62.78;27.77;;;;;;;14.76;100.00;96397.66;1023921;28;20501;-51
2021/09/27 00:42:08;;;;;;;46.50;24.15;;;;;;;14.77;100.00;96393.22;1023993;29;20027;-51
2021/09/27 00:42:38;;;;;;;49.45;24.52;;;;;;;14.77;100.00;96394.06;1024272;28;20023;-51
2021/09/27 00:43:10;;;;;;;63.78;27.70;;;;;;;14.80;100.00;96395.63;1023850;28;20027;-53
2021/09/27 00:43:41;;;;;;;69.93;28.92;;;;;;;14.75;100.00;96393.34;1024116;28;20118;-52
2021/09/27 00:44:12;;;;;;;54.58;25.17;;;;;;;14.78;100.00;96389.63;1019776;29;20020;-51
2021/09/27 00:44:43;;;;;;;71.53;28.55;;;;;;;14.84;100.00;96394.41;1015739;29;20032;-53
2021/09/27 00:45:15;;;;;;;61.03;28.20;;;;;;;14.85;100.00;96393.44;1023816;29;20367;-52
2021/09/27 00:45:52;;;;;;;63.95;27.83;;;;;;;14.89;100.00;96389.59;1024297;28;20046;-52
2021/09/27 00:46:25;;;;;;;77.43;29.92;;;;;;;14.86;100.00;96389.84;1031736;28;20015;-53
2021/09/27 00:46:55;;;;;;;51.63;26.63;;;;;;;14.87;100.00;96385.41;1036031;28;20006;-52
2021/09/27 00:47:26;;;;;;;58.38;27.33;;;;;;;14.89;100.00;96388.78;1031833;28;20102;-52
2021/09/27 00:47:57;;;;;;;50.35;26.02;;;;;;;14.91;100.00;96392.94;1027907;28;20019;-52
2021/09/27 00:48:28;;;;;;;57.13;28.58;;;;;;;14.91;100.00;96392.13;1031737;28;20101;-52
2021/09/27 00:49:00;;;;;;;55.63;26.65;;;;;;;14.91;100.00;96394.75;1035555;28;20006;-52
2021/09/27 00:49:31;;;;;;;53.33;25.85;;;;;;;14.87;100.00;96386.25;1035733;28;20025;-52
2021/09/27 00:50:03;;;;;;;48.88;25.63;;;;;;;14.85;100.00;96385.53;1031875;28;20011;-53
2021/09/27 00:50:37;;;;;;;49.45;26.58;;;;;;;14.84;100.00;96391.75;1028488;28;20481;-52
2021/09/27 00:51:12;;;;;;;53.10;26.13;;;;;;;14.84;100.00;96391.75;1023919;29;20114;-52
2021/09/27 00:51:43;;;;;;;50.72;25.55;;;;;;;14.82;100.00;96393.69;1025471;28;20038;-52
2021/09/27 00:52:15;;;;;;;52.13;26.13;;;;;;;14.85;100.00;96385.53;1025180;28;20016;-52
2021/09/27 00:52:46;;;;;;;47.15;25.42;;;;;;;14.87;100.00;96391.53;1028682;28;20491;-51
2021/09/27 00:53:23;;;;;;;45.65;26.00;;;;;;;14.86;100.00;96389.00;1023903;29;20029;-52
2021/09/27 00:54:15;;;;;;;54.83;26.63;;;;;;;14.83;100.00;96376.91;1028139;28;20539;-53
2021/09/27 00:54:46;;;;;;;54.97;26.35;;;;;;;14.83;100.00;96384.81;1032020;28;20550;-52
2021/09/27 00:55:17;;;;;;;64.28;28.77;;;;;;;14.81;100.00;96386.75;1035898;28;20018;-52
2021/09/27 00:55:48;;;;;;;61.72;28.20;;;;;;;14.76;100.00;96384.47;1027895;28;20235;-52
2021/09/27 00:56:22;;;;;;;52.15;26.33;;;;;;;14.76;100.00;96391.56;1023889;29;20584;-52
2021/09/27 00:56:56;;;;;;;56.42;27.20;;;;;;;14.80;100.00;96378.97;1023892;29;20022;-52
2021/09/27 00:57:26;;;;;;;54.03;27.05;;;;;;;14.82;100.00;96384.94;1023849;29;20111;-52
2021/09/27 00:57:57;;;;;;;61.75;28.58;;;;;;;14.85;100.00;96380.25;1015969;29;20024;-52
2021/09/27 00:58:28;;;;;;;51.30;26.17;;;;;;;14.86;100.00;96387.19;1019697;29;20083;-52
2021/09/27 00:58:59;;;;;;;66.82;30.50;;;;;;;14.91;100.00;96376.28;1023804;29;20106;-52
2021/09/27 00:59:30;;;;;;;67.25;29.33;;;;;;;14.91;100.00;96382.41;1023991;29;20011;-52
2021/09/27 01:00:00;;;;;;;68.60;30.33;;;;;;;14.91;100.00;96373.66;1023978;29;20023;-52
2021/09/27 01:00:31;;;;;;;59.85;28.27;;;;;;;14.84;100.00;96381.22;1023662;29;20106;-52
2021/09/27 01:01:03;;;;;;;50.88;26.80;;;;;;;14.84;100.00;96381.22;1019843;29;20047;-53
2021/09/27 01:01:34;;;;;;;72.13;30.30;;;;;;;14.85;100.00;96375.00;1019918;29;20110;-52
2021/09/27 01:02:05;;;;;;;61.92;28.42;;;;;;;14.86;100.00;96375.81;1023789;29;20030;-52
2021/09/27 01:02:35;;;;;;;73.57;31.17;;;;;;;14.84;100.00;96381.22;1023937;29;20405;-52
2021/09/27 01:03:06;;;;;;;81.95;31.48;;;;;;;14.80;100.00;96374.50;1027585;28;20022;-51
2021/09/27 01:03:37;;;;;;;72.28;31.08;;;;;;;14.82;100.00;96377.03;1023977;28;20099;-52
2021/09/27 01:04:07;;;;;;;63.50;29.30;;;;;;;14.86;100.00;96378.47;1031919;28;20113;-52
2021/09/27 01:04:38;;;;;;;71.60;30.38;;;;;;;14.86;100.00;96374.00;1023879;28;20067;-52
2021/09/27 01:05:10;;;;;;;63.55;29.05;;;;;;;14.84;100.00;96368.03;1031736;28;20029;-53
2021/09/27 01:05:45;;;;;;;62.13;29.13;;;;;;;14.86;100.00;96367.91;1027833;28;20027;-53
2021/09/27 01:06:36;;;;;;;65.30;29.30;;;;;;;14.84;100.00;96373.28;1035873;28;20017;-53
2021/09/27 01:07:30;;;;;;;67.25;30.02;;;;;;;14.83;100.00;96371.63;1035674;28;20459;-52
2021/09/27 01:08:03;;;;;;;63.40;28.73;;;;;;;14.86;100.00;96367.91;1031999;28;20391;-51
2021/09/27 01:08:40;;;;;;;67.80;29.30;;;;;;;14.88;100.00;96369.44;1031787;28;20516;-53
2021/09/27 01:09:36;;;;;;;64.40;29.08;;;;;;;14.85;100.00;96368.88;1027642;28;20171;-52
2021/09/27 01:10:38;;;;;;;57.17;27.58;;;;;;;14.76;100.00;96376.56;1023816;29;20394;-53
2021/09/27 01:11:17;;;;;;;67.47;30.05;;;;;;;14.74;100.00;96373.22;1023340;28;20011;-52
2021/09/27 01:11:56;;;;;;;69.55;29.38;;;;;;;14.72;100.00;96371.66;1026425;28;20012;-53
2021/09/27 01:13:00;;;;;;;70.82;29.95;;;;;;;14.75;100.00;96374.91;1030342;28;20155;-52
2021/09/27 01:13:48;;;;;;;68.68;29.63;;;;;;;14.76;100.00;96375.72;1031807;28;20034;-53
2021/09/27 01:14:54;;;;;;;72.22;30.85;;;;;;;14.76;100.00;96371.28;1034565;28;20017;-53
2021/09/27 01:15:51;;;;;;;82.35;32.40;;;;;;;14.76;100.00;96375.72;1031629;28;20022;-51
2021/09/27 01:16:28;;;;;;;84.65;31.25;;;;;;;14.76;100.00;96371.28;1031810;28;20025;-53
2021/09/27 01:17:24;;;;;;;83.45;32.17;;;;;;;14.73;100.00;96368.03;1034581;28;20117;-51
2021/09/27 01:18:16;;;;;;;65.80;29.55;;;;;;;14.73;100.00;96373.31;1024012;28;20453;-53
2021/09/27 01:19:18;;;;;;;89.20;33.58;;;;;;;14.63;100.00;96367.94;1030057;28;20501;-52
2021/09/27 01:20:20;;;;;;;99.95;34.53;;;;;;;14.67;100.00;96363.28;1033906;28;20380;-52
2021/09/27 01:21:09;;;;;;;70.20;31.20;;;;;;;14.65;100.00;96365.19;1031754;28;20033;-51
2021/09/27 01:22:01;;;;;;;70.03;30.25;;;;;;;14.63;100.00;96361.84;1030333;28;20023;-52
2021/09/27 01:23:05;;;;;;;77.07;30.83;;;;;;;14.61;100.00;96372.50;1035822;28;20083;-51
2021/09/27 01:24:06;;;;;;;76.53;31.80;;;;;;;14.55;100.00;96365.91;1030927;28;20476;-53
2021/09/27 01:24:54;;;;;;;67.47;28.58;;;;;;;14.54;100.00;96361.56;1031817;28;20552;-52
2021/09/27 01:25:43;;;;;;;88.18;33.75;;;;;;;14.52;100.00;96360.03;1036511;28;20019;-51
2021/09/27 01:26:54;;;;;;;101.32;34.15;;;;;;;14.54;100.00;96363.38;1035868;28;20025;-52
2021/09/27 01:27:47;;;;;;;72.95;32.30;;;;;;;14.50;100.00;96361.94;1027865;28;20023;-52
2021/09/27 01:28:29;;;;;;;88.80;33.65;;;;;;;14.47;100.00;96363.03;1027985;28;20030;-52
2021/09/27 01:29:22;;;;;;;83.45;33.13;;;;;;;14.46;100.00;96364.00;1028135;28;20022;-51
2021/09/27 01:30:11;;;;;;;95.65;33.08;;;;;;;14.48;100.00;96359.44;1028199;28;20022;-52
2021/09/27 01:30:51;;;;;;;83.65;34.67;;;;;;;14.44;100.00;96358.00;1033312;28;20050;-51
2021/09/27 01:31:32;;;;;;;97.85;35.78;;;;;;;14.44;100.00;96355.38;1031715;28;20025;-52
2021/09/27 01:32:30;;;;;;;102.88;35.63;;;;;;;14.46;100.00;96355.25;1031749;28;20624;-51
2021/09/27 01:33:04;;;;;;;76.28;33.05;;;;;;;14.46;100.00;96360.53;1024532;28;20078;-51
2021/09/27 01:33:40;;;;;;;77.60;33.47;;;;;;;14.45;100.00;96358.84;1023999;28;20038;-51
2021/09/27 01:34:18;;;;;;;87.30;35.72;;;;;;;14.46;100.00;96356.09;1019624;29;20508;-50
2021/09/27 01:35:02;;;;;;;80.85;34.00;;;;;;;14.46;100.00;96352.63;1020440;29;20494;-51
2021/09/27 01:36:02;;;;;;;78.43;34.25;;;;;;;14.38;100.00;96363.78;1023581;29;20374;-51
2021/09/27 01:36:41;;;;;;;69.30;33.00;;;;;;;14.36;100.00;96358.63;1025614;28;20041;-49
2021/09/27 01:37:46;;;;;;;80.70;33.53;;;;;;;14.38;100.00;96358.50;1029193;28;20034;-51
2021/09/27 01:38:26;;;;;;;81.95;33.08;;;;;;;14.37;100.00;96349.72;1031516;28;20030;-49
2021/09/27 01:39:00;;;;;;;84.00;34.90;;;;;;;14.36;100.00;96360.41;1027857;28;20066;-50
2021/09/27 01:39:37;;;;;;;84.25;35.13;;;;;;;14.32;100.00;96358.97;1027690;28;20034;-50
2021/09/27 01:40:16;;;;;;;92.28;35.05;;;;;;;14.31;100.00;96357.31;1023726;29;20509;-51
2021/09/27 01:41:03;;;;;;;83.43;34.80;;;;;;;14.29;100.00;96361.84;1023706;29;20106;-50
2021/09/27 01:41:42;;;;;;;103.47;36.80;;;;;;;14.27;100.00;96356.69;1027714;28;20477;-50
2021/09/27 01:42:18;;;;;;;90.50;36.53;;;;;;;14.26;100.00;96357.66;1019706;29;20504;-50
2021/09/27 01:43:25;;;;;;;77.97;32.78;;;;;;;14.28;100.00;96352.25;1027765;28;20089;-51
2021/09/27 01:44:01;;;;;;;102.95;36.85;;;;;;;14.27;100.00;96358.50;1026259;28;20019;-50
2021/09/27 01:44:39;;;;;;;92.60;34.90;;;;;;;14.27;100.00;96354.06;1027395;28;20019;-52
2021/09/27 01:45:31;;;;;;;96.25;35.55;;;;;;;14.26;100.00;96355.00;1023682;29;20026;-51
2021/09/27 01:46:22;;;;;;;103.65;36.50;;;;;;;14.26;100.00;96357.66;1023918;29;20019;-51
2021/09/27 01:46:56;;;;;;;91.68;35.47;;;;;;;14.26;100.00;96357.66;1027041;28;20102;-51
2021/09/27 01:47:31;;;;;;;93.13;36.38;;;;;;;14.23;100.00;96357.91;1027603;28;20102;-51
2021/09/27 01:48:11;;;;;;;110.30;38.88;;;;;;;14.25;100.00;96357.78;1019869;29;20024;-52
2021/09/27 01:48:56;;;;;;;100.65;37.35;;;;;;;14.24;100.00;96356.09;1022084;29;20094;-52
2021/09/27 01:49:49;;;;;;;81.70;33.65;;;;;;;14.23;100.00;96360.53;1023415;29;20086;-52
2021/09/27 01:50:29;;;;;;;113.38;37.28;;;;;;;14.24;100.00;96362.19;1028581;28;20502;-52
2021/09/27 01:51:08;;;;;;;88.32;35.05;;;;;;;14.21;100.00;96354.56;1032176;28;20049;-52
2021/09/27 01:51:50;;;;;;;107.72;37.70;;;;;;;14.19;100.00;96357.31;1027606;28;20030;-51
2021/09/27 01:52:35;;;;;;;89.07;34.55;;;;;;;14.17;100.00;96351.31;1027796;28;20058;-51
2021/09/27 01:53:10;;;;;;;110.68;37.67;;;;;;;14.16;100.00;96360.16;1023955;28;20035;-52
2021/09/27 01:53:47;;;;;;;131.20;41.33;;;;;;;14.14;100.00;96354.19;1027757;28;20486;-52
2021/09/27 01:54:26;;;;;;;90.35;36.88;;;;;;;14.17;100.00;96358.38;1027896;28;20354;-51
2021/09/27 01:55:01;;;;;;;101.85;37.60;;;;;;;14.15;100.00;96353.25;1030314;28;20034;-51
2021/09/27 01:55:38;;;;;;;99.72;37.97;;;;;;;14.15;100.00;96355.88;1031674;28;20552;-52
2021/09/27 01:56:14;;;;;;;107.68;38.05;;;;;;;14.15;100.00;96357.66;1027622;28;20385;-52
2021/09/27 01:56:51;;;;;;;108.57;39.40;;;;;;;14.15;100.00;96349.75;1019648;29;20027;-52
2021/09/27 01:57:45;;;;;;;103.30;38.30;;;;;;;14.16;100.00;96356.69;1019746;29;20577;-51
2021/09/27 01:58:21;;;;;;;129.20;41.60;;;;;;;14.10;100.00;96360.66;1023780;29;20085;-52
2021/09/27 01:59:05;;;;;;;112.80;40.35;;;;;;;14.10;100.00;96359.81;1027689;28;20023;-51
2021/09/27 02:00:05;;;;;;;89.72;37.10;;;;;;;14.15;100.00;96361.16;1031784;28;20026;-52
2021/09/27 02:00:39;;;;;;;100.57;36.88;;;;;;;14.15;100.00;96355.88;1033482;28;20045;-52
2021/09/27 02:01:33;;;;;;;112.07;39.80;;;;;;;14.11;100.00;96359.69;1027647;28;20034;-53
2021/09/27 02:02:03;;;;;;;114.68;39.40;;;;;;;14.14;100.00;96350.72;1027727;28;20030;-52
2021/09/27 02:02:37;;;;;;;102.05;38.00;;;;;;;14.16;100.00;96365.44;1031301;28;20030;-52
2021/09/27 02:03:18;;;;;;;102.45;37.67;;;;;;;14.14;100.00;96358.63;1035226;28;20025;-51
2021/09/27 02:03:54;;;;;;;103.72;38.80;;;;;;;14.12;100.00;96365.81;1035928;28;20014;-51
2021/09/27 02:04:47;;;;;;;109.07;38.75;;;;;;;14.10;100.00;96362.47;1035913;28;20411;-52
2021/09/27 02:05:23;;;;;;;133.88;40.72;;;;;;;14.10;100.00;96362.47;1035615;28;20018;-52
2021/09/27 02:06:14;;;;;;;126.07;40.92;;;;;;;14.07;100.00;96360.06;1031628;28;20451;-51
2021/09/27 02:06:47;;;;;;;92.13;37.63;;;;;;;14.08;100.00;96367.00;1031760;28;20048;-52
2021/09/27 02:07:19;;;;;;;104.00;38.33;;;;;;;14.07;100.00;96363.53;1027911;28;20023;-52
2021/09/27 02:08:08;;;;;;;102.45;39.17;;;;;;;14.07;100.00;96363.53;1034596;28;20540;-52
2021/09/27 02:08:58;;;;;;;108.72;38.83;;;;;;;14.08;100.00;96359.13;1031710;28;20081;-51
2021/09/27 02:09:52;;;;;;;122.55;40.40;;;;;;;14.05;100.00;96362.81;1032853;28;20054;-52
2021/09/27 02:10:26;;;;;;;132.27;40.15;;;;;;;14.02;100.00;96363.06;1033750;28;20113;-51
2021/09/27 02:11:02;;;;;;;90.45;35.88;;;;;;;14.01;100.00;96366.63;1032190;28;20018;-51
2021/09/27 02:11:35;;;;;;;110.28;39.67;;;;;;;13.99;100.00;96364.13;1028124;28;20093;-51
2021/09/27 02:12:10;;;;;;;95.68;37.80;;;;;;;13.99;100.00;96360.66;1031424;28;20490;-51
2021/09/27 02:12:47;;;;;;;135.80;42.55;;;;;;;13.99;100.00;96363.28;1029904;28;20030;-51
2021/09/27 02:13:31;;;;;;;120.85;40.00;;;;;;;13.97;100.00;96359.94;1027994;28;20483;-52
2021/09/27 02:14:28;;;;;;;102.25;38.25;;;;;;;13.97;100.00;96363.41;1024362;28;20015;-52
2021/09/27 02:15:10;;;;;;;158.82;42.83;;;;;;;13.94;100.00;96368.91;1027901;28;20019;-51
2021/09/27 02:15:42;;;;;;;117.90;38.58;;;;;;;13.91;100.00;96361.25;1029691;28;20027;-50
2021/09/27 02:16:20;;;;;;;125.00;39.13;;;;;;;13.91;100.00;96366.53;1031741;28;20364;-50
2021/09/27 02:17:13;;;;;;;114.93;38.78;;;;;;;13.88;100.00;96363.28;1026461;28;20489;-51
2021/09/27 02:17:53;;;;;;;140.77;42.90;;;;;;;13.88;100.00;96361.47;1023628;28;20195;-51
2021/09/27 02:18:26;;;;;;;137.50;43.13;;;;;;;13.87;100.00;96364.22;1024732;28;20106;-52
2021/09/27 02:19:06;;;;;;;111.75;38.53;;;;;;;13.85;100.00;96361.72;1023800;29;20098;-51
2021/09/27 02:19:47;;;;;;;148.32;45.28;;;;;;;13.83;100.00;96366.25;1023760;29;20058;-52
2021/09/27 02:20:23;;;;;;;156.55;43.08;;;;;;;13.83;100.00;96368.06;1022958;29;20027;-51
2021/09/27 02:20:57;;;;;;;105.05;38.67;;;;;;;13.80;100.00;96364.69;1019687;29;20055;-52
2021/09/27 02:21:30;;;;;;;127.95;41.88;;;;;;;13.79;100.00;96367.44;1021853;29;20019;-51
2021/09/27 02:22:09;;;;;;;190.13;45.63;;;;;;;13.78;100.00;96369.25;1026554;28;20058;-52
2021/09/27 02:22:44;;;;;;;172.38;45.47;;;;;;;13.77;100.00;96362.28;1027695;28;20057;-51
2021/09/27 02:23:19;;;;;;;162.32;43.95;;;;;;;13.71;100.00;96359.31;1029808;28;20106;-52
2021/09/27 02:23:54;;;;;;;222.68;48.95;;;;;;;13.73;100.00;96363.47;1023677;28;20027;-53
2021/09/27 02:24:48;;;;;;;122.45;39.65;;;;;;;13.72;100.00;96360.97;1019742;29;20090;-52
2021/09/27 02:25:22;;;;;;;166.05;45.15;;;;;;;13.73;100.00;96363.47;1023746;28;20087;-52
2021/09/27 02:25:54;;;;;;;154.07;43.38;;;;;;;13.71;100.00;96364.56;1027752;28;20034;-52
2021/09/27 02:26:25;;;;;;;132.57;40.97;;;;;;;13.71;100.00;96360.13;1031831;28;20578;-51
2021/09/27 02:26:55;;;;;;;400.00;63.15;;;;;;;13.70;100.00;96360.25;1023686;29;20019;-52
2021/09/27 02:27:26;;;;;;;302.33;55.70;;;;;;;13.70;100.00;96365.50;1027786;28;20047;-53
2021/09/27 02:27:57;;;;;;;190.57;45.75;;;;;;;13.65;100.00;96363.25;1024063;28;20023;-52
2021/09/27 02:28:29;;;;;;;243.95;49.08;;;;;;;13.68;100.00;96365.63;1027552;28;20022;-53
2021/09/27 02:29:00;;;;;;;333.08;58.70;;;;;;;13.70;100.00;96363.75;1023805;28;20059;-52
2021/09/27 02:29:31;;;;;;;188.13;47.15;;;;;;;13.70;100.00;96362.88;1023746;28;20129;-52
2021/09/27 02:30:04;;;;;;;189.63;46.08;;;;;;;13.69;100.00;96361.22;1031647;28;20014;-51
2021/09/27 02:30:57;;;;;;;160.82;43.22;;;;;;;13.65;100.00;96359.78;1031937;28;20030;-52
2021/09/27 02:31:32;;;;;;;132.70;41.28;;;;;;;13.67;100.00;96368.41;1031655;28;20022;-52
2021/09/27 02:32:08;;;;;;;109.95;39.42;;;;;;;13.67;100.00;96363.97;1023753;29;20023;-53
2021/09/27 02:32:42;;;;;;;117.63;40.22;;;;;;;13.65;100.00;96362.41;1019698;29;20032;-52
2021/09/27 02:33:35;;;;;;;138.27;42.30;;;;;;;13.63;100.00;96370.41;1023301;28;20020;-53
2021/09/27 02:34:06;;;;;;;209.68;49.20;;;;;;;13.60;100.00;96368.84;1027784;28;20117;-52
2021/09/27 02:34:41;;;;;;;173.27;44.55;;;;;;;13.59;100.00;96369.81;1031461;28;20034;-51
2021/09/27 02:35:16;;;;;;;174.60;43.35;;;;;;;13.58;100.00;96364.66;1027669;28;20023;-52
2021/09/27 02:36:17;;;;;;;254.15;53.88;;;;;;;13.57;100.00;96368.22;1027702;28;20473;-52
2021/09/27 02:36:59;;;;;;;368.13;57.03;;;;;;;13.53;100.00;96362.38;1027697;28;20113;-51
2021/09/27 02:37:35;;;;;;;181.65;41.03;;;;;;;13.51;100.00;96369.53;1027175;28;20028;-52
2021/09/27 02:38:10;;;;;;;222.68;45.45;;;;;;;13.50;100.00;96365.25;1027798;28;20023;-51
2021/09/27 02:38:59;;;;;;;199.80;44.97;;;;;;;13.51;100.00;96368.69;1022554;29;20118;-52
2021/09/27 02:39:33;;;;;;;133.38;39.83;;;;;;;13.48;100.00;96364.53;1027880;28;20505;-52
2021/09/27 02:40:14;;;;;;;125.95;40.35;;;;;;;13.52;100.00;96373.03;1023726;29;20049;-52
2021/09/27 02:40:53;;;;;;;122.15;40.65;;;;;;;13.50;100.00;96361.78;1027603;28;20026;-52
2021/09/27 02:41:29;;;;;;;126.70;39.35;;;;;;;13.49;100.00;96365.34;1030801;28;20041;-51
2021/09/27 02:42:21;;;;;;;302.65;51.42;;;;;;;13.47;100.00;96365.47;1034929;28;20491;-50
2021/09/27 02:42:52;;;;;;;116.00;35.83;;;;;;;13.45;100.00;96363.91;1035551;28;20026;-52
2021/09/27 02:43:24;;;;;;;119.63;36.90;;;;;;;13.44;100.00;96364.84;1035778;28;20025;-52
2021/09/27 02:43:55;;;;;;;142.15;41.45;;;;;;;13.41;100.00;96363.28;1031748;28;20057;-51
2021/09/27 02:44:26;;;;;;;152.43;43.95;;;;;;;13.41;100.00;96366.75;1027673;28;20022;-51
2021/09/27 02:44:56;;;;;;;134.82;41.65;;;;;;;13.44;100.00;96363.06;1023613;29;20039;-51
2021/09/27 02:45:28;;;;;;;98.40;36.53;;;;;;;13.41;100.00;96365.94;1019943;29;20063;-51
2021/09/27 02:45:59;;;;;;;119.72;39.58;;;;;;;13.41;100.00;96364.13;1027831;28;20480;-52
2021/09/27 02:46:30;;;;;;;96.28;36.53;;;;;;;13.39;100.00;96363.41;1027920;28;20051;-52
2021/09/27 02:47:01;;;;;;;145.35;41.80;;;;;;;13.39;100.00;96365.22;1023532;29;20039;-52
2021/09/27 02:47:37;;;;;;;138.02;42.90;;;;;;;13.42;100.00;96362.34;1023615;29;20023;-51
2021/09/27 02:48:19;;;;;;;104.25;38.85;;;;;;;13.44;100.00;96367.47;1023812;29;20159;-52
2021/09/27 02:48:56;;;;;;;114.93;37.90;;;;;;;13.40;100.00;96362.47;1023768;29;20019;-51